Hauptseite
METAR-TAF:

METAR-TAF

Flughäfen :

Flughafen Fuaʻamotu

Tongatapu, Tonga

Breite: 21-14S, Länge: 175-09W, Höhe: 38 m

Beobachtung

Neuester Wetterbericht von vor 25 Minuten, um 21:00 UTC
Wind 6 kt aus Ost
Temperatur 24°C
Luftfeuchtigkeit 74%
Luftdruck 1017 hPa
Sichtweite 10 km oder mehr
Leicht bewölkt in der Höhe von 1800 ft
Durchbrochene Bewölkung in der Höhe von 4000 ft

METAR: NFTF 232100Z 10006KT 9999 FEW018 BKN040 24/19 Q1017

Zeit: 10:25 (21:25 UTC)

Prognose

Neuester Wetterbericht von vor 4 Stunden und 26 Minuten, um 16:59 UTC
Gültige Prognose vom 23 um 18 UTC bis 24 um 18 UTC
Wind 7 kt aus Südost
Sichtweite 10 km oder mehr
Aufgelockert bewölkt in der Höhe von 1800 ft
Durchbrochene Bewölkung in der Höhe von 10000 ft

TAF: NFTF 231659Z 2318/2418 13007KT 9999 SCT018 BKN100

Wetterbeobachtungen und Prognosen von mehr als 4000 Flughäfen (METAR und TAF Bericht).

Die verfügbaren Stationen werden durch gelbe und rote Markierungen auf der Karte dargestellt.

Führen Sie die Maus auf sie, um den Namen der Station zu sehen.

Darauf klicken, um die Beobachtung von Wetterbeobachtungen und Prognosen zu sehen.

Um die Karte zu ändern : klicken Sie auf den grünen Tasten mit einem schwarzen Kreuz Zum Vergrößern, auf den grünen Button mit einem Gedankenstrich zu verkleinern, oder auf die grünen Pfeile für benachbarte Karten.


METAR-TAF: